createdAt,value
2023-03-16T00:02:20.339Z,14.25
2023-03-16T00:04:47.511Z,14.07
2023-03-16T00:07:15.227Z,13.85
2023-03-16T00:09:42.176Z,14.80
2023-03-16T00:12:18.149Z,13.68
2023-03-16T00:14:49.176Z,14.10
2023-03-16T00:17:21.190Z,13.00
2023-03-16T00:19:51.264Z,13.02
2023-03-16T00:22:17.841Z,13.82
2023-03-16T00:24:44.463Z,13.07
2023-03-16T00:27:15.743Z,14.20
2023-03-16T00:29:49.658Z,14.25
2023-03-16T00:32:18.790Z,12.98
2023-03-16T00:34:46.866Z,12.50
2023-03-16T00:37:16.157Z,13.80
2023-03-16T00:39:43.634Z,12.80
2023-03-16T00:42:11.989Z,14.38
2023-03-16T00:44:39.159Z,13.13
2023-03-16T00:47:06.617Z,12.50
2023-03-16T00:49:34.927Z,13.52
2023-03-16T00:52:05.606Z,12.27
2023-03-16T00:54:35.547Z,13.93
2023-03-16T00:57:02.628Z,12.90
2023-03-16T00:59:29.895Z,12.50
2023-03-16T01:01:56.554Z,12.70
2023-03-16T01:04:23.362Z,12.43
2023-03-16T01:06:50.008Z,12.68
2023-03-16T01:09:16.542Z,12.40
2023-03-16T01:11:46.543Z,11.75
2023-03-16T01:14:13.204Z,12.48
2023-03-16T01:16:39.733Z,12.60
2023-03-16T01:19:06.250Z,11.82
2023-03-16T01:21:38.305Z,12.13
2023-03-16T01:24:05.234Z,12.50
2023-03-16T01:26:32.417Z,12.35
2023-03-16T01:28:58.910Z,14.23
2023-03-16T01:31:25.461Z,14.40
2023-03-16T01:33:52.358Z,17.23
2023-03-16T01:36:19.640Z,14.38
2023-03-16T01:38:46.214Z,15.10
2023-03-16T01:41:12.855Z,13.18
2023-03-16T01:43:41.009Z,13.57
2023-03-16T01:46:14.350Z,11.65
2023-03-16T01:48:58.663Z,11.82
2023-03-16T01:51:43.042Z,10.80
2023-03-16T01:54:25.420Z,11.80
2023-03-16T01:56:58.997Z,10.95
2023-03-16T01:59:37.877Z,11.82
2023-03-16T02:02:05.257Z,12.05
2023-03-16T02:04:52.705Z,11.68
2023-03-16T02:07:22.491Z,10.80
2023-03-16T02:09:52.091Z,10.73
2023-03-16T02:12:19.201Z,10.50
2023-03-16T02:14:47.367Z,11.20
2023-03-16T02:17:15.470Z,10.50
2023-03-16T02:19:47.227Z,10.40
2023-03-16T02:22:14.794Z,10.43
2023-03-16T02:24:42.190Z,9.43
2023-03-16T02:27:31.086Z,9.93
2023-03-16T02:30:01.425Z,9.75
2023-03-16T02:32:30.735Z,9.98
2023-03-16T02:34:59.025Z,9.15
2023-03-16T02:37:26.762Z,10.32
2023-03-16T02:39:53.795Z,10.27
2023-03-16T02:42:23.676Z,9.75
2023-03-16T02:44:58.574Z,10.57
2023-03-16T02:47:37.187Z,9.55
2023-03-16T02:50:06.770Z,9.30
2023-03-16T02:52:38.378Z,9.77
2023-03-16T02:55:08.738Z,9.52
2023-03-16T02:57:35.274Z,9.88
2023-03-16T03:00:02.402Z,9.90
2023-03-16T03:02:28.888Z,9.93
2023-03-16T03:04:55.399Z,9.90
2023-03-16T03:07:22.098Z,9.85
2023-03-16T03:09:48.582Z,9.45
2023-03-16T03:12:15.131Z,10.20
2023-03-16T03:14:41.730Z,9.85
2023-03-16T03:17:10.080Z,9.43
2023-03-16T03:19:37.036Z,10.18
2023-03-16T03:22:06.479Z,10.55
2023-03-16T03:24:34.504Z,9.60
2023-03-16T03:27:05.678Z,9.05
2023-03-16T03:29:36.168Z,9.50
2023-03-16T03:32:04.440Z,9.52
2023-03-16T03:34:31.856Z,10.45
2023-03-16T03:36:59.186Z,10.35
2023-03-16T03:39:25.766Z,9.52
2023-03-16T03:41:55.475Z,10.07
2023-03-16T03:44:23.065Z,10.30
2023-03-16T03:46:50.109Z,10.25
2023-03-16T03:49:16.674Z,9.65
2023-03-16T03:51:44.187Z,9.27
2023-03-16T03:54:10.862Z,8.90
2023-03-16T03:56:37.556Z,9.40
2023-03-16T03:59:04.148Z,9.23
2023-03-16T04:01:30.798Z,10.05
2023-03-16T04:03:57.388Z,9.98
2023-03-16T04:06:23.895Z,10.55
2023-03-16T04:08:51.301Z,10.45
2023-03-16T04:11:17.851Z,10.95
2023-03-16T04:13:44.344Z,10.52
2023-03-16T04:16:11.160Z,13.32
2023-03-16T04:18:40.327Z,13.65
2023-03-16T04:21:12.717Z,12.90
2023-03-16T04:23:39.365Z,11.55
2023-03-16T04:26:05.862Z,10.40
2023-03-16T04:28:32.813Z,9.82
2023-03-16T04:31:05.484Z,9.80
2023-03-16T04:33:32.428Z,9.13
2023-03-16T04:35:59.645Z,8.98
2023-03-16T04:38:26.433Z,9.13
2023-03-16T04:40:52.929Z,8.68
2023-03-16T04:43:19.485Z,8.88
2023-03-16T04:45:46.121Z,8.82
2023-03-16T04:48:12.645Z,9.50
2023-03-16T04:50:39.211Z,10.38
2023-03-16T04:53:05.718Z,10.25
2023-03-16T04:55:32.303Z,10.18
2023-03-16T04:57:58.905Z,9.00
2023-03-16T05:00:26.016Z,8.98
2023-03-16T05:02:52.707Z,8.43
2023-03-16T05:05:19.249Z,8.60
2023-03-16T05:07:45.778Z,8.15
2023-03-16T05:10:14.841Z,9.40
2023-03-16T05:12:41.362Z,8.57
2023-03-16T05:15:08.771Z,8.85
2023-03-16T05:17:35.331Z,8.55
2023-03-16T05:20:02.378Z,8.40
2023-03-16T05:22:29.056Z,7.90
2023-03-16T05:24:55.559Z,7.47
2023-03-16T05:27:22.051Z,8.38
2023-03-16T05:29:48.562Z,7.40
2023-03-16T05:32:17.198Z,7.80
2023-03-16T05:34:44.224Z,8.15
2023-03-16T05:37:10.945Z,8.73
2023-03-16T05:39:37.844Z,8.32
2023-03-16T05:42:05.936Z,10.77
2023-03-16T05:44:33.884Z,9.52
2023-03-16T05:47:00.443Z,10.43
2023-03-16T05:49:27.383Z,9.00
2023-03-16T05:51:54.915Z,9.57
2023-03-16T05:54:21.401Z,9.93
2023-03-16T05:56:47.973Z,10.45
2023-03-16T05:59:14.521Z,11.25
2023-03-16T06:01:41.035Z,12.38
2023-03-16T06:04:07.690Z,12.10
2023-03-16T06:06:34.363Z,13.95
2023-03-16T06:09:01.330Z,13.48
2023-03-16T06:11:27.831Z,11.65
2023-03-16T06:13:57.919Z,7.82
2023-03-16T06:16:24.807Z,7.00
2023-03-16T06:18:51.419Z,5.82
2023-03-16T06:21:18.051Z,5.53
2023-03-16T06:23:45.010Z,5.32
2023-03-16T06:26:11.593Z,5.40
2023-03-16T06:28:38.107Z,4.55
2023-03-16T06:31:04.712Z,4.72
2023-03-16T06:33:31.631Z,4.70
2023-03-16T06:35:58.364Z,4.53
2023-03-16T06:38:24.976Z,4.68
2023-03-16T06:40:53.125Z,4.53
2023-03-16T06:43:20.145Z,5.18
2023-03-16T06:45:47.103Z,4.40
2023-03-16T06:48:13.693Z,4.65
2023-03-16T06:50:40.180Z,4.72
2023-03-16T06:53:06.710Z,4.90
2023-03-16T06:55:33.344Z,4.88
2023-03-16T06:57:59.887Z,4.30
2023-03-16T07:00:26.732Z,4.65
2023-03-16T07:02:53.422Z,4.10
2023-03-16T07:05:19.966Z,4.20
2023-03-16T07:07:46.531Z,4.07
2023-03-16T07:10:16.064Z,4.70
2023-03-16T07:12:42.825Z,4.20
2023-03-16T07:15:10.960Z,4.00
2023-03-16T07:17:37.639Z,3.80
2023-03-16T07:20:05.991Z,4.13
2023-03-16T07:22:33.146Z,3.92
2023-03-16T07:24:59.875Z,3.95
2023-03-16T07:27:26.348Z,3.92
2023-03-16T07:29:52.903Z,3.42
2023-03-16T07:32:19.964Z,3.90
2023-03-16T07:34:46.506Z,3.88
2023-03-16T07:37:18.389Z,4.20
2023-03-16T07:39:48.237Z,3.58
2023-03-16T07:42:14.793Z,3.90
2023-03-16T07:44:41.900Z,3.53
2023-03-16T07:47:12.511Z,3.58
2023-03-16T07:49:39.227Z,3.92
2023-03-16T07:52:06.142Z,3.83
2023-03-16T07:54:32.643Z,3.78
2023-03-16T07:56:59.193Z,3.80
2023-03-16T07:59:25.730Z,4.00
2023-03-16T08:01:52.249Z,3.80
2023-03-16T08:04:19.131Z,3.92
2023-03-16T08:06:45.669Z,3.58
2023-03-16T08:09:12.212Z,3.42
2023-03-16T08:11:38.709Z,3.30
2023-03-16T08:14:05.601Z,3.55
2023-03-16T08:16:32.281Z,4.10
2023-03-16T08:18:59.783Z,3.55
2023-03-16T08:21:26.264Z,3.40
2023-03-16T08:23:52.770Z,3.42
2023-03-16T08:26:21.124Z,3.20
2023-03-16T08:28:48.127Z,3.42
2023-03-16T08:31:15.612Z,3.35
2023-03-16T08:33:43.565Z,2.92
2023-03-16T08:36:12.287Z,3.20
2023-03-16T08:38:40.175Z,3.65
2023-03-16T08:41:07.519Z,3.20
2023-03-16T08:43:34.515Z,3.28
2023-03-16T08:46:01.835Z,3.05
2023-03-16T08:48:28.901Z,3.35
2023-03-16T08:50:55.584Z,3.28
2023-03-16T08:53:22.194Z,3.05
2023-03-16T08:55:48.680Z,2.90
2023-03-16T08:58:15.703Z,3.03
2023-03-16T09:00:44.319Z,3.25
2023-03-16T09:03:11.991Z,3.20
2023-03-16T09:05:38.506Z,2.60
2023-03-16T09:08:06.259Z,2.55
2023-03-16T09:10:33.285Z,2.90
2023-03-16T09:12:59.801Z,2.90
2023-03-16T09:15:26.916Z,2.45
2023-03-16T09:17:54.438Z,2.33
2023-03-16T09:20:26.422Z,2.33
2023-03-16T09:22:55.084Z,2.80
2023-03-16T09:25:22.321Z,2.65
2023-03-16T09:27:48.850Z,2.45
2023-03-16T09:30:16.870Z,2.70
2023-03-16T09:32:43.794Z,2.45
2023-03-16T09:35:10.330Z,2.50
2023-03-16T09:37:45.252Z,2.70
2023-03-16T09:40:26.702Z,2.50
2023-03-16T09:42:59.100Z,2.63
2023-03-16T09:46:06.578Z,2.40
2023-03-16T09:48:35.805Z,2.70
2023-03-16T09:51:06.213Z,2.85
2023-03-16T09:53:35.445Z,2.50
2023-03-16T09:56:10.563Z,2.90
2023-03-16T09:58:37.246Z,2.72
2023-03-16T10:01:45.606Z,2.75
2023-03-16T10:04:36.904Z,2.40
2023-03-16T10:07:30.365Z,2.67
2023-03-16T10:10:28.471Z,2.75
2023-03-16T10:13:00.222Z,2.97
2023-03-16T10:15:31.407Z,2.55
2023-03-16T10:18:06.587Z,2.70
2023-03-16T10:20:34.808Z,2.70
2023-03-16T10:23:13.464Z,2.40
2023-03-16T10:25:49.780Z,2.60
2023-03-16T10:28:22.392Z,2.88
2023-03-16T10:30:51.470Z,2.58
2023-03-16T10:33:31.581Z,2.55
2023-03-16T10:36:02.597Z,2.72
2023-03-16T10:38:40.892Z,2.78
2023-03-16T10:41:23.974Z,2.53
2023-03-16T10:43:54.404Z,2.90
2023-03-16T10:46:22.360Z,2.85
2023-03-16T10:49:20.274Z,2.90
2023-03-16T10:51:47.013Z,2.45
2023-03-16T10:54:24.900Z,2.40
2023-03-16T10:56:51.605Z,2.80
2023-03-16T10:59:32.041Z,2.95
2023-03-16T11:02:00.231Z,2.50
2023-03-16T11:04:31.633Z,2.58
2023-03-16T11:06:58.887Z,2.70
2023-03-16T11:09:33.065Z,3.28
2023-03-16T11:12:01.471Z,2.97
2023-03-16T11:14:29.469Z,2.90
2023-03-16T11:17:16.163Z,3.65
2023-03-16T11:19:53.292Z,2.08
2023-03-16T11:22:24.419Z,2.50
2023-03-16T11:25:03.055Z,2.90
2023-03-16T11:27:49.153Z,3.00
2023-03-16T11:30:31.095Z,2.85
2023-03-16T11:33:00.683Z,2.83
2023-03-16T11:35:59.792Z,3.00
2023-03-16T11:38:34.636Z,3.08
2023-03-16T11:41:12.202Z,2.72
2023-03-16T11:43:57.041Z,2.70
2023-03-16T11:46:27.669Z,2.60
2023-03-16T11:49:24.753Z,2.70
2023-03-16T11:52:15.453Z,3.10
2023-03-16T11:54:55.489Z,2.70
2023-03-16T11:57:41.825Z,2.63
2023-03-16T12:03:26.536Z,2.33
2023-03-16T12:06:07.785Z,2.70
2023-03-16T12:08:45.087Z,2.30
2023-03-16T12:11:25.511Z,2.50
2023-03-16T12:14:06.608Z,2.65
2023-03-16T12:16:49.826Z,3.35
2023-03-16T12:19:23.035Z,2.50
2023-03-16T12:22:01.259Z,2.83
2023-03-16T12:24:35.806Z,2.88
2023-03-16T12:27:02.709Z,3.50
2023-03-16T12:29:52.555Z,2.45
2023-03-16T12:32:45.613Z,2.83
2023-03-16T12:35:34.008Z,2.50
2023-03-16T12:38:15.680Z,2.60
2023-03-16T12:40:50.044Z,2.28
2023-03-16T12:43:31.463Z,2.60
2023-03-16T12:46:18.630Z,2.88
2023-03-16T12:48:54.155Z,3.05
2023-03-16T12:51:20.644Z,2.22
2023-03-16T12:53:55.404Z,2.50
2023-03-16T12:56:33.538Z,2.80
2023-03-16T12:59:03.221Z,2.58
2023-03-16T13:01:38.030Z,3.03
2023-03-16T13:04:32.553Z,2.30
2023-03-16T13:07:09.608Z,2.72
2023-03-16T13:09:42.407Z,2.90
2023-03-16T13:12:10.557Z,2.30
2023-03-16T13:14:44.745Z,2.60
2023-03-16T13:17:17.415Z,2.80
2023-03-16T13:19:47.871Z,2.50
2023-03-16T13:22:28.017Z,3.50
2023-03-16T13:25:14.102Z,2.38
2023-03-16T13:27:44.660Z,5.47
2023-03-16T13:30:28.749Z,3.00
2023-03-16T13:33:03.724Z,2.80
2023-03-16T13:35:30.495Z,2.90
2023-03-16T13:38:05.818Z,2.78
2023-03-16T13:40:33.196Z,2.53
2023-03-16T13:43:01.854Z,3.08
2023-03-16T13:45:33.395Z,2.60
2023-03-16T13:48:03.882Z,2.30
2023-03-16T13:50:35.218Z,2.30
2023-03-16T13:53:14.689Z,2.75
2023-03-16T13:55:44.734Z,2.45
2023-03-16T13:58:23.577Z,2.85
2023-03-16T14:00:50.144Z,2.28
2023-03-16T14:03:19.407Z,2.40
2023-03-16T14:05:47.589Z,2.80
2023-03-16T14:08:21.613Z,2.10
2023-03-16T14:10:49.380Z,2.30
2023-03-16T14:13:28.125Z,2.00
2023-03-16T14:15:57.211Z,2.30
2023-03-16T14:18:34.531Z,2.22
2023-03-16T14:21:06.947Z,2.33
2023-03-16T14:23:38.031Z,2.75
2023-03-16T14:26:06.823Z,2.42
2023-03-16T14:28:34.279Z,2.85
2023-03-16T14:31:07.460Z,2.53
2023-03-16T14:33:41.499Z,2.60
2023-03-16T14:36:16.501Z,2.70
2023-03-16T14:38:45.290Z,2.40
2023-03-16T14:41:20.736Z,2.78
2023-03-16T14:44:06.309Z,4.85
2023-03-16T14:46:38.054Z,4.63
2023-03-16T14:49:43.325Z,3.38
2023-03-16T14:52:21.724Z,2.60
2023-03-16T14:54:48.282Z,2.50
2023-03-16T14:57:16.979Z,2.20
2023-03-16T14:59:43.674Z,2.40
2023-03-16T15:02:17.093Z,2.40
2023-03-16T15:04:44.524Z,2.30
2023-03-16T15:07:22.477Z,2.65
2023-03-16T15:09:50.799Z,2.28
2023-03-16T15:12:19.739Z,2.67
2023-03-16T15:15:05.645Z,2.50
2023-03-16T15:17:32.763Z,2.65
2023-03-16T15:19:59.794Z,2.60
2023-03-16T15:22:35.699Z,2.65
2023-03-16T15:25:27.403Z,2.40
2023-03-16T15:27:54.538Z,2.40
2023-03-16T15:30:26.825Z,2.85
2023-03-16T15:32:53.570Z,2.90
2023-03-16T15:35:20.822Z,3.00
2023-03-16T15:37:47.790Z,2.60
2023-03-16T15:40:26.308Z,2.72
2023-03-16T15:42:54.433Z,2.70
2023-03-16T15:45:23.003Z,2.63
2023-03-16T15:47:51.194Z,2.35
2023-03-16T15:50:20.962Z,2.60
2023-03-16T15:52:51.393Z,2.65
2023-03-16T15:55:22.686Z,2.40
2023-03-16T15:57:55.777Z,2.80
2023-03-16T16:00:30.827Z,2.60
2023-03-16T16:02:58.764Z,2.50
2023-03-16T16:05:25.937Z,2.63
2023-03-16T16:07:53.515Z,2.50
2023-03-16T16:10:20.783Z,2.67
2023-03-16T16:12:52.766Z,2.40
2023-03-16T16:15:26.124Z,2.60
2023-03-16T16:18:16.395Z,2.50
2023-03-16T16:20:41.145Z,3.63
2023-03-16T16:23:10.517Z,2.97
2023-03-16T16:25:41.630Z,2.63
2023-03-16T16:28:23.679Z,2.50
2023-03-16T16:30:51.087Z,3.03
2023-03-16T16:33:35.976Z,3.20
2023-03-16T16:36:13.292Z,3.47
2023-03-16T16:38:39.875Z,3.00
2023-03-16T16:41:15.680Z,3.20
2023-03-16T16:43:47.766Z,3.33
2023-03-16T16:46:20.221Z,3.47
2023-03-16T16:48:48.954Z,3.60
2023-03-16T16:51:21.833Z,4.10
2023-03-16T16:53:49.423Z,3.85
2023-03-16T16:56:18.649Z,4.13
2023-03-16T16:58:46.511Z,4.07
2023-03-16T17:01:16.089Z,4.18
2023-03-16T17:03:42.827Z,5.47
2023-03-16T17:06:17.038Z,5.32
2023-03-16T17:08:47.406Z,4.35
2023-03-16T17:11:22.005Z,4.45
2023-03-16T17:13:50.651Z,3.83
2023-03-16T17:16:18.565Z,3.40
2023-03-16T17:18:45.419Z,3.55
2023-03-16T17:21:20.776Z,2.78
2023-03-16T17:23:49.108Z,3.35
2023-03-16T17:26:19.250Z,2.97
2023-03-16T17:28:51.964Z,2.90
2023-03-16T17:31:24.601Z,3.67
2023-03-16T17:33:52.661Z,3.25
2023-03-16T17:36:20.752Z,3.33
2023-03-16T17:38:48.226Z,3.90
2023-03-16T17:41:22.353Z,3.00
2023-03-16T17:43:50.964Z,3.10
2023-03-16T17:46:20.416Z,3.53
2023-03-16T17:48:47.850Z,3.88
2023-03-16T17:51:16.602Z,3.72
2023-03-16T17:53:44.414Z,4.05
2023-03-16T17:56:19.775Z,4.47
2023-03-16T17:58:54.116Z,4.30
2023-03-16T18:01:24.765Z,5.32
2023-03-16T18:03:51.529Z,5.55
2023-03-16T18:06:24.728Z,6.35
2023-03-16T18:08:51.691Z,6.30
2023-03-16T18:11:32.505Z,7.18
2023-03-16T18:13:59.314Z,7.07
2023-03-16T18:16:28.546Z,7.32
2023-03-16T18:19:00.120Z,9.20
2023-03-16T18:21:28.488Z,8.88
2023-03-16T18:23:55.181Z,7.72
2023-03-16T18:26:23.958Z,3.58
2023-03-16T18:28:51.429Z,9.50
2023-03-16T18:31:21.738Z,11.35
2023-03-16T18:33:55.216Z,15.63
2023-03-16T18:36:29.956Z,21.65
2023-03-16T18:38:59.750Z,21.77
2023-03-16T18:41:33.712Z,20.55
2023-03-16T18:44:05.818Z,20.75
2023-03-16T18:46:35.441Z,18.92
2023-03-16T18:49:18.795Z,20.67
2023-03-16T18:51:52.826Z,50.85
2023-03-16T18:54:25.451Z,28.48
2023-03-16T18:56:53.874Z,12.88
2023-03-16T18:59:21.102Z,12.35
2023-03-16T19:01:47.899Z,10.18
2023-03-16T19:04:19.862Z,10.65
2023-03-16T19:09:23.006Z,16.88
2023-03-16T19:11:50.370Z,18.30
2023-03-16T19:14:19.912Z,18.33
2023-03-16T19:16:46.729Z,19.13
2023-03-16T19:19:15.228Z,19.33
2023-03-16T19:21:43.310Z,19.42
2023-03-16T19:24:21.502Z,18.52
2023-03-16T19:26:48.482Z,20.33
2023-03-16T19:29:15.929Z,17.98
2023-03-16T19:31:43.799Z,17.63
2023-03-16T19:34:19.500Z,17.42
2023-03-16T19:36:47.554Z,17.70
2023-03-16T19:39:17.114Z,16.38
2023-03-16T19:41:47.741Z,17.20
2023-03-16T19:44:17.540Z,17.73
2023-03-16T19:46:44.612Z,18.42
2023-03-16T19:49:19.842Z,19.88
2023-03-16T19:51:47.771Z,18.52
2023-03-16T19:54:23.737Z,18.15
2023-03-16T19:56:52.580Z,19.40
2023-03-16T19:59:20.265Z,18.48
2023-03-16T20:01:47.217Z,18.38
2023-03-16T20:04:25.255Z,18.05
2023-03-16T20:06:52.060Z,18.55
2023-03-16T20:09:18.686Z,18.20
2023-03-16T20:11:46.068Z,18.15
2023-03-16T20:14:29.285Z,19.27
2023-03-16T20:16:56.087Z,19.40
2023-03-16T20:19:23.197Z,20.40
2023-03-16T20:21:49.922Z,19.65
2023-03-16T20:24:19.430Z,20.40
2023-03-16T20:26:48.256Z,22.98
2023-03-16T20:29:39.194Z,22.02
2023-03-16T20:32:14.506Z,24.30
2023-03-16T20:34:41.068Z,22.10
2023-03-16T20:37:25.004Z,20.55
2023-03-16T20:39:53.889Z,19.65
2023-03-16T20:42:25.939Z,20.13
2023-03-16T20:44:52.821Z,22.00
2023-03-16T20:47:22.899Z,22.67
2023-03-16T20:49:50.832Z,20.00
2023-03-16T20:52:20.462Z,23.33
2023-03-16T20:54:48.207Z,20.10
2023-03-16T20:57:24.267Z,21.33
2023-03-16T21:02:36.441Z,20.25
2023-03-16T21:05:05.577Z,24.10
2023-03-16T21:07:32.295Z,17.23
2023-03-16T21:09:58.881Z,19.42
2023-03-16T21:12:32.053Z,20.02
2023-03-16T21:15:00.215Z,20.25
2023-03-16T21:17:34.662Z,19.00
2023-03-16T21:20:01.466Z,17.73
2023-03-16T21:22:30.304Z,20.48
2023-03-16T21:24:57.617Z,23.25
2023-03-16T21:27:26.828Z,19.85
2023-03-16T21:29:55.192Z,21.50
2023-03-16T21:32:25.990Z,20.92
2023-03-16T21:34:53.226Z,22.67
2023-03-16T21:37:23.957Z,23.42
2023-03-16T21:39:53.920Z,22.95
2023-03-16T21:42:20.659Z,21.55
2023-03-16T21:44:47.346Z,21.77
2023-03-16T21:47:26.503Z,22.40
2023-03-16T21:49:54.800Z,23.08
2023-03-16T21:52:26.803Z,23.90
2023-03-16T21:54:54.581Z,22.38
2023-03-16T21:57:21.665Z,21.90
2023-03-16T21:59:48.505Z,20.92
2023-03-16T22:02:20.171Z,22.17
2023-03-16T22:04:47.322Z,23.00
2023-03-16T22:07:14.351Z,25.08
2023-03-16T22:09:41.154Z,25.77
2023-03-16T22:12:11.441Z,25.60
2023-03-16T22:14:38.340Z,26.85
2023-03-16T22:17:06.638Z,25.02
2023-03-16T22:19:34.176Z,28.35
2023-03-16T22:22:00.886Z,30.15
2023-03-16T22:24:30.620Z,30.63
2023-03-16T22:26:58.118Z,33.50
2023-03-16T22:29:30.285Z,31.45
2023-03-16T22:32:07.638Z,30.00
2023-03-16T22:34:43.801Z,33.03
2023-03-16T22:39:44.160Z,29.25
2023-03-16T22:42:32.128Z,30.63
2023-03-16T22:44:58.930Z,33.97
2023-03-16T22:47:33.904Z,33.22
2023-03-16T22:50:00.460Z,33.10
2023-03-16T22:52:30.885Z,33.20
2023-03-16T22:55:00.148Z,29.23
2023-03-16T22:57:27.562Z,30.45
2023-03-16T22:59:54.150Z,30.55
2023-03-16T23:02:24.559Z,30.85
2023-03-16T23:04:51.170Z,31.35
2023-03-16T23:07:18.228Z,28.30
2023-03-16T23:09:44.777Z,31.08
2023-03-16T23:12:17.352Z,28.88
2023-03-16T23:14:43.900Z,30.70
2023-03-16T23:17:22.261Z,30.92
2023-03-16T23:19:48.954Z,28.42
2023-03-16T23:22:15.629Z,31.70
2023-03-16T23:24:42.487Z,31.25
2023-03-16T23:27:18.887Z,32.85
2023-03-16T23:29:46.042Z,28.00
2023-03-16T23:32:14.744Z,42.50
2023-03-16T23:34:41.514Z,33.53
2023-03-16T23:37:08.669Z,24.38
2023-03-16T23:39:35.171Z,23.90
2023-03-16T23:42:05.104Z,20.73
2023-03-16T23:44:31.694Z,24.83
2023-03-16T23:46:59.863Z,24.38
2023-03-16T23:49:30.636Z,22.20
2023-03-16T23:51:58.886Z,23.42
2023-03-16T23:54:29.647Z,21.98
2023-03-16T23:56:56.392Z,22.83
2023-03-16T23:59:23.629Z,23.27
